createdAt,value
2017-12-31T00:00:48.881Z,886.13
2017-12-31T00:01:48.865Z,886.11
2017-12-31T00:02:48.854Z,886.12
2017-12-31T00:03:48.840Z,886.15
2017-12-31T00:04:48.828Z,886.15
2017-12-31T00:05:48.815Z,886.20
2017-12-31T00:06:48.798Z,886.19
2017-12-31T00:07:48.782Z,886.20
2017-12-31T00:08:48.768Z,886.15
2017-12-31T00:09:48.755Z,886.16
2017-12-31T00:10:48.738Z,886.13
2017-12-31T00:11:48.724Z,886.14
2017-12-31T00:12:48.711Z,886.15
2017-12-31T00:13:48.697Z,886.16
2017-12-31T00:14:48.683Z,886.24
2017-12-31T00:15:48.667Z,886.26
2017-12-31T00:16:48.650Z,886.27
2017-12-31T00:17:48.644Z,886.28
2017-12-31T00:18:48.627Z,886.35
2017-12-31T00:19:48.608Z,886.39
2017-12-31T00:20:48.599Z,886.38
2017-12-31T00:21:48.582Z,886.35
2017-12-31T00:22:48.564Z,886.38
2017-12-31T00:23:48.551Z,886.38
2017-12-31T00:24:48.537Z,886.40
2017-12-31T00:25:48.528Z,886.47
2017-12-31T00:26:48.510Z,886.52
2017-12-31T00:27:48.498Z,886.55
2017-12-31T00:28:48.485Z,886.49
2017-12-31T00:29:48.465Z,886.50
2017-12-31T00:30:48.457Z,886.52
2017-12-31T00:31:48.441Z,886.55
2017-12-31T00:32:48.424Z,886.57
2017-12-31T00:33:48.412Z,886.56
2017-12-31T00:34:48.396Z,886.52
2017-12-31T00:35:48.384Z,886.55
2017-12-31T00:36:48.373Z,886.54
2017-12-31T00:37:48.353Z,886.60
2017-12-31T00:38:48.344Z,886.62
2017-12-31T00:39:48.321Z,886.67
2017-12-31T00:40:48.311Z,886.69
2017-12-31T00:41:48.297Z,886.70
2017-12-31T00:42:48.277Z,886.74
2017-12-31T00:43:48.268Z,886.72
2017-12-31T00:44:48.255Z,886.72
2017-12-31T00:45:48.241Z,886.71
2017-12-31T00:46:48.226Z,886.73
2017-12-31T00:47:48.212Z,886.73
2017-12-31T00:48:48.194Z,886.77
2017-12-31T00:49:48.183Z,886.75
2017-12-31T00:50:48.167Z,886.75
2017-12-31T00:51:48.152Z,886.79
2017-12-31T00:52:48.140Z,886.78
2017-12-31T00:53:48.124Z,886.82
2017-12-31T00:54:48.109Z,886.81
2017-12-31T00:55:48.097Z,886.83
2017-12-31T00:56:48.081Z,886.83
2017-12-31T00:57:48.071Z,886.82
2017-12-31T00:58:48.052Z,886.85
2017-12-31T00:59:48.042Z,886.86
2017-12-31T01:00:48.026Z,886.90
2017-12-31T01:01:48.012Z,886.89
2017-12-31T01:02:47.995Z,886.92
2017-12-31T01:03:47.983Z,886.90
2017-12-31T01:04:47.973Z,886.85
2017-12-31T01:05:47.960Z,886.84
2017-12-31T01:06:47.955Z,886.82
2017-12-31T01:07:47.927Z,886.76
2017-12-31T01:08:47.919Z,886.77
2017-12-31T01:09:47.900Z,886.71
2017-12-31T01:10:47.883Z,886.73
2017-12-31T01:11:47.866Z,886.77
2017-12-31T01:12:47.854Z,886.79
2017-12-31T01:13:47.836Z,886.79
2017-12-31T01:14:47.823Z,886.80
2017-12-31T01:15:47.810Z,886.81
2017-12-31T01:16:47.796Z,886.86
2017-12-31T01:17:47.780Z,886.83
2017-12-31T01:18:47.772Z,886.88
2017-12-31T01:19:47.754Z,886.94
2017-12-31T01:20:47.738Z,886.92
2017-12-31T01:21:47.729Z,886.92
2017-12-31T01:22:47.716Z,886.85
2017-12-31T01:23:47.702Z,886.85
2017-12-31T01:24:47.687Z,886.84
2017-12-31T01:25:47.670Z,886.87
2017-12-31T01:26:47.652Z,886.82
2017-12-31T01:27:47.637Z,886.80
2017-12-31T01:28:47.628Z,886.80
2017-12-31T01:29:47.612Z,886.78
2017-12-31T01:30:47.593Z,886.83
2017-12-31T01:31:47.580Z,886.85
2017-12-31T01:32:47.568Z,886.89
2017-12-31T01:33:47.550Z,886.86
2017-12-31T01:34:47.533Z,886.86
2017-12-31T01:35:47.524Z,886.87
2017-12-31T01:36:47.510Z,886.83
2017-12-31T01:37:47.498Z,886.84
2017-12-31T01:38:47.480Z,886.83
2017-12-31T01:39:47.467Z,886.85
2017-12-31T01:40:47.469Z,886.84
2017-12-31T01:41:47.436Z,886.82
2017-12-31T01:42:47.423Z,886.80
2017-12-31T01:43:47.412Z,886.84
2017-12-31T01:44:47.392Z,886.84
2017-12-31T01:45:47.380Z,886.82
2017-12-31T01:46:47.367Z,886.89
2017-12-31T01:47:47.351Z,886.85
2017-12-31T01:48:47.344Z,886.81
2017-12-31T01:49:47.323Z,886.89
2017-12-31T01:50:47.306Z,886.85
2017-12-31T01:51:47.294Z,886.83
2017-12-31T01:52:47.283Z,886.83
2017-12-31T01:53:47.268Z,886.83
2017-12-31T01:54:47.247Z,886.82
2017-12-31T01:55:47.231Z,886.81
2017-12-31T01:56:47.219Z,886.79
2017-12-31T01:57:47.206Z,886.83
2017-12-31T01:58:47.192Z,886.85
2017-12-31T01:59:47.178Z,886.83
2017-12-31T02:00:47.167Z,886.82
2017-12-31T02:01:47.151Z,886.88
2017-12-31T02:02:47.138Z,886.91
2017-12-31T02:03:47.124Z,886.92
2017-12-31T02:04:47.110Z,886.96
2017-12-31T02:05:47.095Z,886.95
2017-12-31T02:06:47.076Z,886.98
2017-12-31T02:07:47.061Z,887.01
2017-12-31T02:08:47.045Z,887.01
2017-12-31T02:09:47.035Z,887.05
2017-12-31T02:10:47.018Z,887.05
2017-12-31T02:11:47.005Z,887.05
2017-12-31T02:12:46.988Z,887.10
2017-12-31T02:13:46.975Z,887.08
2017-12-31T02:14:46.965Z,887.06
2017-12-31T02:15:46.947Z,887.07
2017-12-31T02:16:46.936Z,887.10
2017-12-31T02:17:46.915Z,887.09
2017-12-31T02:18:46.907Z,887.09
2017-12-31T02:19:46.891Z,887.10
2017-12-31T02:20:46.923Z,887.12
2017-12-31T02:21:46.862Z,887.06
2017-12-31T02:22:46.845Z,887.12
2017-12-31T02:23:46.834Z,887.14
2017-12-31T02:24:46.818Z,887.14
2017-12-31T02:25:46.805Z,887.20
2017-12-31T02:26:46.791Z,887.20
2017-12-31T02:27:46.773Z,887.23
2017-12-31T02:28:46.768Z,887.29
2017-12-31T02:29:46.744Z,887.25
2017-12-31T02:30:46.735Z,887.26
2017-12-31T02:31:46.720Z,887.23
2017-12-31T02:32:46.705Z,887.31
2017-12-31T02:33:46.689Z,887.30
2017-12-31T02:34:46.675Z,887.29
2017-12-31T02:35:46.664Z,887.31
2017-12-31T02:36:46.651Z,887.31
2017-12-31T02:37:46.631Z,887.31
2017-12-31T02:38:46.618Z,887.25
2017-12-31T02:39:46.607Z,887.28
2017-12-31T02:40:46.589Z,887.28
2017-12-31T02:41:46.572Z,887.26
2017-12-31T02:42:46.564Z,887.31
2017-12-31T02:43:46.547Z,887.32
2017-12-31T02:44:46.534Z,887.34
2017-12-31T02:45:46.518Z,887.32
2017-12-31T02:46:46.507Z,887.38
2017-12-31T02:47:46.489Z,887.39
2017-12-31T02:48:46.478Z,887.35
2017-12-31T02:49:46.465Z,887.38
2017-12-31T02:50:46.452Z,887.41
2017-12-31T02:51:46.437Z,887.40
2017-12-31T02:52:46.423Z,887.44
2017-12-31T02:53:46.410Z,887.44
2017-12-31T02:54:46.393Z,887.41
2017-12-31T02:55:46.379Z,887.42
2017-12-31T02:56:46.365Z,887.41
2017-12-31T02:57:46.348Z,887.37
2017-12-31T02:58:46.334Z,887.37
2017-12-31T02:59:46.324Z,887.34
2017-12-31T03:00:46.308Z,887.36
2017-12-31T03:01:46.297Z,887.38
2017-12-31T03:02:46.275Z,887.38
2017-12-31T03:03:46.263Z,887.38
2017-12-31T03:04:46.250Z,887.35
2017-12-31T03:05:46.236Z,887.40
2017-12-31T03:06:46.217Z,887.41
2017-12-31T03:07:46.205Z,887.44
2017-12-31T03:08:46.194Z,887.44
2017-12-31T03:09:46.179Z,887.45
2017-12-31T03:10:46.162Z,887.43
2017-12-31T03:11:46.148Z,887.46
2017-12-31T03:12:46.135Z,887.42
2017-12-31T03:13:46.127Z,887.39
2017-12-31T03:14:46.102Z,887.38
2017-12-31T03:15:46.093Z,887.40
2017-12-31T03:16:46.082Z,887.42
2017-12-31T03:17:46.064Z,887.41
2017-12-31T03:18:46.050Z,887.44
2017-12-31T03:19:46.039Z,887.39
2017-12-31T03:20:46.019Z,887.40
2017-12-31T03:21:46.007Z,887.43
2017-12-31T03:22:45.991Z,887.47
2017-12-31T03:23:45.978Z,887.48
2017-12-31T03:24:45.959Z,887.45
2017-12-31T03:25:45.949Z,887.47
2017-12-31T03:26:45.933Z,887.41
2017-12-31T03:27:45.921Z,887.38
2017-12-31T03:28:45.905Z,887.38
2017-12-31T03:29:45.896Z,887.38
2017-12-31T03:30:45.876Z,887.36
2017-12-31T03:31:45.864Z,887.40
2017-12-31T03:32:45.848Z,887.38
2017-12-31T03:33:45.833Z,887.44
2017-12-31T03:34:45.821Z,887.40
2017-12-31T03:35:45.806Z,887.41
2017-12-31T03:36:45.790Z,887.39
2017-12-31T03:37:45.778Z,887.40
2017-12-31T03:38:45.758Z,887.39
2017-12-31T03:39:45.746Z,887.40
2017-12-31T03:40:45.734Z,887.38
2017-12-31T03:41:45.717Z,887.38
2017-12-31T03:42:45.702Z,887.38
2017-12-31T03:43:45.687Z,887.30
2017-12-31T03:44:45.670Z,887.30
2017-12-31T03:45:45.656Z,887.29
2017-12-31T03:46:45.647Z,887.32
2017-12-31T03:47:45.630Z,887.29
2017-12-31T03:48:45.617Z,887.33
2017-12-31T03:49:45.602Z,887.29
2017-12-31T03:50:45.589Z,887.29
2017-12-31T03:51:45.574Z,887.29
2017-12-31T03:52:45.558Z,887.33
2017-12-31T03:53:45.545Z,887.31
2017-12-31T03:54:45.529Z,887.32
2017-12-31T03:55:45.517Z,887.32
2017-12-31T03:56:45.502Z,887.28
2017-12-31T03:57:45.488Z,887.24
2017-12-31T03:58:45.472Z,887.24
2017-12-31T03:59:45.456Z,887.23
2017-12-31T04:00:45.443Z,887.25
2017-12-31T04:01:45.425Z,887.27
2017-12-31T04:02:45.418Z,887.26
2017-12-31T04:03:45.400Z,887.27
2017-12-31T04:04:45.391Z,887.27
2017-12-31T04:05:45.370Z,887.27
2017-12-31T04:06:45.355Z,887.32
2017-12-31T04:07:45.341Z,887.29
2017-12-31T04:08:45.326Z,887.33
2017-12-31T04:09:45.317Z,887.31
2017-12-31T04:10:45.296Z,887.29
2017-12-31T04:11:45.283Z,887.24
2017-12-31T04:12:45.271Z,887.24
2017-12-31T04:13:45.252Z,887.25
2017-12-31T04:14:45.240Z,887.25
2017-12-31T04:15:45.226Z,887.25
2017-12-31T04:16:45.212Z,887.22
2017-12-31T04:17:45.195Z,887.19
2017-12-31T04:18:45.187Z,887.16
2017-12-31T04:19:45.168Z,887.12
2017-12-31T04:20:45.153Z,887.07
2017-12-31T04:21:45.140Z,887.05
2017-12-31T04:22:45.124Z,887.04
2017-12-31T04:23:45.110Z,887.07
2017-12-31T04:24:45.095Z,887.03
2017-12-31T04:25:45.080Z,887.07
2017-12-31T04:26:45.066Z,887.09
2017-12-31T04:27:45.052Z,887.12
2017-12-31T04:28:45.037Z,887.13
2017-12-31T04:29:45.025Z,887.13
2017-12-31T04:30:45.009Z,887.13
2017-12-31T04:31:44.995Z,887.10
2017-12-31T04:32:44.979Z,887.08
2017-12-31T04:33:44.969Z,887.06
2017-12-31T04:34:44.947Z,887.08
2017-12-31T04:35:44.938Z,887.03
2017-12-31T04:36:44.920Z,887.08
2017-12-31T04:37:44.908Z,887.03
2017-12-31T04:38:44.892Z,887.07
2017-12-31T04:39:44.884Z,887.09
2017-12-31T04:40:44.860Z,887.13
2017-12-31T04:41:44.849Z,887.16
2017-12-31T04:42:44.834Z,887.17
2017-12-31T04:43:44.818Z,887.16
2017-12-31T04:44:44.800Z,887.21
2017-12-31T04:45:44.791Z,887.21
2017-12-31T04:46:44.777Z,887.27
2017-12-31T04:47:44.759Z,887.28
2017-12-31T04:48:44.745Z,887.31
2017-12-31T04:49:44.738Z,887.27
2017-12-31T04:50:44.710Z,887.27
2017-12-31T04:51:44.703Z,887.28
2017-12-31T04:52:44.687Z,887.32
2017-12-31T04:53:44.673Z,887.26
2017-12-31T04:54:44.679Z,887.30
2017-12-31T04:55:44.643Z,887.35
2017-12-31T04:56:44.630Z,887.37
2017-12-31T04:57:44.616Z,887.38
2017-12-31T04:58:44.607Z,887.39
2017-12-31T04:59:44.589Z,887.39
2017-12-31T05:00:44.572Z,887.43
2017-12-31T05:01:44.556Z,887.38
2017-12-31T05:02:44.540Z,887.40
2017-12-31T05:03:44.527Z,887.39
2017-12-31T05:04:44.510Z,887.37
2017-12-31T05:05:44.501Z,887.40
2017-12-31T05:06:44.482Z,887.43
2017-12-31T05:07:44.473Z,887.46
2017-12-31T05:08:44.457Z,887.49
2017-12-31T05:09:44.443Z,887.52
2017-12-31T05:10:44.423Z,887.52
2017-12-31T05:11:44.412Z,887.57
2017-12-31T05:12:44.396Z,887.55
2017-12-31T05:13:44.384Z,887.55
2017-12-31T05:14:44.367Z,887.53
2017-12-31T05:15:44.351Z,887.53
2017-12-31T05:16:44.338Z,887.53
2017-12-31T05:17:44.326Z,887.54
2017-12-31T05:18:44.310Z,887.51
2017-12-31T05:19:44.294Z,887.50
2017-12-31T05:20:44.281Z,887.52
2017-12-31T05:21:44.267Z,887.53
2017-12-31T05:22:44.253Z,887.49
2017-12-31T05:23:44.236Z,887.45
2017-12-31T05:24:44.220Z,887.39
2017-12-31T05:25:44.207Z,887.33
2017-12-31T05:26:44.194Z,887.35
2017-12-31T05:27:44.181Z,887.36
2017-12-31T05:28:44.159Z,887.29
2017-12-31T05:29:44.147Z,887.32
2017-12-31T05:30:44.136Z,887.32
2017-12-31T05:31:44.120Z,887.33
2017-12-31T05:32:44.107Z,887.42
2017-12-31T05:33:44.090Z,887.37
2017-12-31T05:34:44.081Z,887.38
2017-12-31T05:35:44.063Z,887.44
2017-12-31T05:36:44.052Z,887.40
2017-12-31T05:37:44.040Z,887.45
2017-12-31T05:38:44.020Z,887.51
2017-12-31T05:39:44.003Z,887.50
2017-12-31T05:40:43.991Z,887.52
2017-12-31T05:41:43.974Z,887.50
2017-12-31T05:42:43.961Z,887.49
2017-12-31T05:43:43.943Z,887.53
2017-12-31T05:44:43.930Z,887.53
2017-12-31T05:45:43.917Z,887.58
2017-12-31T05:46:43.903Z,887.58
2017-12-31T05:47:43.890Z,887.54
2017-12-31T05:48:43.876Z,887.59
2017-12-31T05:49:43.862Z,887.54
2017-12-31T05:50:43.847Z,887.49
2017-12-31T05:51:43.836Z,887.52
2017-12-31T05:52:43.820Z,887.45
2017-12-31T05:53:43.806Z,887.41
2017-12-31T05:54:43.789Z,887.40
2017-12-31T05:55:43.773Z,887.32
2017-12-31T05:56:43.763Z,887.33
2017-12-31T05:57:43.746Z,887.31
2017-12-31T05:58:43.736Z,887.34
2017-12-31T05:59:43.716Z,887.32
2017-12-31T06:00:43.703Z,887.34
2017-12-31T06:01:43.689Z,887.38
2017-12-31T06:02:43.674Z,887.38
2017-12-31T06:03:43.662Z,887.30
2017-12-31T06:04:43.645Z,887.25
2017-12-31T06:05:43.635Z,887.25
2017-12-31T06:06:43.618Z,887.23
2017-12-31T06:07:43.607Z,887.24
2017-12-31T06:08:43.594Z,887.22
2017-12-31T06:09:43.576Z,887.20
2017-12-31T06:10:43.563Z,887.18
2017-12-31T06:11:43.547Z,887.12
2017-12-31T06:12:43.531Z,887.12
2017-12-31T06:13:43.519Z,887.13
2017-12-31T06:14:43.505Z,887.13
2017-12-31T06:15:43.487Z,887.17
2017-12-31T06:16:43.475Z,887.15
2017-12-31T06:17:43.461Z,887.13
2017-12-31T06:18:43.448Z,887.12
2017-12-31T06:19:43.434Z,887.14
2017-12-31T06:20:43.424Z,887.16
2017-12-31T06:21:43.403Z,887.13
2017-12-31T06:22:43.382Z,887.11
2017-12-31T06:23:43.375Z,887.12
2017-12-31T06:24:43.362Z,887.14
2017-12-31T06:25:43.344Z,887.17
2017-12-31T06:26:43.331Z,887.13
2017-12-31T06:27:43.322Z,887.11
2017-12-31T06:28:43.310Z,887.06
2017-12-31T06:29:43.286Z,887.03
2017-12-31T06:30:43.274Z,887.02
2017-12-31T06:31:43.254Z,886.99
2017-12-31T06:32:43.245Z,886.98
2017-12-31T06:33:43.237Z,886.97
2017-12-31T06:34:43.213Z,887.01
2017-12-31T06:35:43.198Z,887.02
2017-12-31T06:36:43.186Z,887.05
2017-12-31T06:37:43.173Z,887.05
2017-12-31T06:38:43.158Z,887.11
2017-12-31T06:39:43.147Z,887.12
2017-12-31T06:40:43.130Z,887.16
2017-12-31T06:41:43.118Z,887.14
2017-12-31T06:42:43.100Z,887.13
2017-12-31T06:43:43.085Z,887.15
2017-12-31T06:44:43.075Z,887.12
2017-12-31T06:45:43.073Z,887.16
2017-12-31T06:46:43.041Z,887.18
2017-12-31T06:47:43.026Z,887.20
2017-12-31T06:48:43.014Z,887.18
2017-12-31T06:49:42.996Z,887.16
2017-12-31T06:50:42.981Z,887.11
2017-12-31T06:51:42.967Z,887.03
2017-12-31T06:52:42.955Z,887.05
2017-12-31T06:53:42.940Z,887.11
2017-12-31T06:54:42.928Z,887.20
2017-12-31T06:55:42.912Z,887.17
2017-12-31T06:56:42.896Z,887.11
2017-12-31T06:57:42.883Z,887.02
2017-12-31T06:58:42.868Z,887.01
2017-12-31T06:59:42.851Z,887.05
2017-12-31T07:00:42.841Z,887.06
2017-12-31T07:01:42.821Z,887.09
2017-12-31T07:02:42.813Z,887.08
2017-12-31T07:03:42.794Z,887.04
2017-12-31T07:04:42.782Z,887.02
2017-12-31T07:05:42.766Z,887.07
2017-12-31T07:06:42.749Z,887.10
2017-12-31T07:07:42.734Z,887.11
2017-12-31T07:08:42.722Z,887.06
2017-12-31T07:09:42.708Z,887.08
2017-12-31T07:10:42.691Z,887.09
2017-12-31T07:11:42.681Z,887.14
2017-12-31T07:12:42.663Z,887.20
2017-12-31T07:13:42.644Z,887.20
2017-12-31T07:14:42.634Z,887.21
2017-12-31T07:15:42.619Z,887.20
2017-12-31T07:16:42.605Z,887.21
2017-12-31T07:17:42.587Z,887.22
2017-12-31T07:18:42.573Z,887.26
2017-12-31T07:19:42.598Z,887.25
2017-12-31T07:20:42.542Z,887.25
2017-12-31T07:21:42.532Z,887.27
2017-12-31T07:22:42.527Z,887.22
2017-12-31T07:23:42.499Z,887.20
2017-12-31T07:24:42.483Z,887.19
2017-12-31T07:25:42.470Z,887.18
2017-12-31T07:26:42.455Z,887.22
2017-12-31T07:27:42.443Z,887.22
2017-12-31T07:28:42.424Z,887.21
2017-12-31T07:29:42.413Z,887.29
2017-12-31T07:30:42.397Z,887.31
2017-12-31T07:31:42.385Z,887.30
2017-12-31T07:32:42.368Z,887.30
2017-12-31T07:33:42.354Z,887.31
2017-12-31T07:34:42.379Z,887.28
2017-12-31T07:35:42.322Z,887.34
2017-12-31T07:36:42.304Z,887.34
2017-12-31T07:37:42.287Z,887.40
2017-12-31T07:38:42.276Z,887.42
2017-12-31T07:39:42.261Z,887.39
2017-12-31T07:40:42.252Z,887.36
2017-12-31T07:41:42.235Z,887.31
2017-12-31T07:42:42.217Z,887.32
2017-12-31T07:43:42.203Z,887.35
2017-12-31T07:44:42.188Z,887.29
2017-12-31T07:45:42.170Z,887.33
2017-12-31T07:46:42.159Z,887.32
2017-12-31T07:47:42.148Z,887.31
2017-12-31T07:48:42.125Z,887.33
2017-12-31T07:49:42.118Z,887.34
2017-12-31T07:50:42.099Z,887.34
2017-12-31T07:51:42.080Z,887.34
2017-12-31T07:52:42.071Z,887.36
2017-12-31T07:53:42.055Z,887.28
2017-12-31T07:54:42.044Z,887.24
2017-12-31T07:55:42.016Z,887.19
2017-12-31T07:56:42.009Z,887.16
2017-12-31T07:57:41.992Z,887.10
2017-12-31T07:58:41.978Z,887.05
2017-12-31T07:59:41.965Z,887.07
2017-12-31T08:00:41.951Z,887.06
2017-12-31T08:01:41.935Z,887.03
2017-12-31T08:02:41.919Z,887.04
2017-12-31T08:03:41.906Z,887.08
2017-12-31T08:04:41.894Z,887.04
2017-12-31T08:05:41.877Z,887.03
2017-12-31T08:06:41.863Z,887.04
2017-12-31T08:07:41.856Z,887.04
2017-12-31T08:08:41.829Z,887.06
2017-12-31T08:09:41.817Z,887.07
2017-12-31T08:10:41.796Z,887.06
2017-12-31T08:11:41.788Z,887.05
2017-12-31T08:12:41.771Z,887.03
2017-12-31T08:13:41.755Z,887.06
2017-12-31T08:14:41.740Z,887.02
2017-12-31T08:15:41.731Z,887.05
2017-12-31T08:16:41.712Z,887.07
2017-12-31T08:17:41.700Z,887.04
2017-12-31T08:18:41.687Z,887.06
2017-12-31T08:19:41.662Z,887.02
2017-12-31T08:20:41.648Z,886.98
2017-12-31T08:21:41.645Z,887.00
2017-12-31T08:22:41.622Z,886.99
2017-12-31T08:23:41.604Z,887.02
2017-12-31T08:24:41.591Z,886.99
2017-12-31T08:25:41.580Z,886.99
2017-12-31T08:26:41.562Z,886.97
2017-12-31T08:27:41.548Z,886.93
2017-12-31T08:28:41.531Z,886.94
2017-12-31T08:29:41.521Z,886.96
2017-12-31T08:30:41.503Z,886.99
2017-12-31T08:31:41.489Z,886.98
2017-12-31T08:32:41.470Z,886.98
2017-12-31T08:33:41.456Z,886.96
2017-12-31T08:34:41.441Z,886.97
2017-12-31T08:35:41.429Z,887.00
2017-12-31T08:36:41.413Z,886.99
2017-12-31T08:37:41.394Z,887.06
2017-12-31T08:38:41.383Z,887.01
2017-12-31T08:39:41.368Z,887.04
2017-12-31T08:40:41.356Z,887.07
2017-12-31T08:41:41.341Z,887.07
2017-12-31T08:42:41.330Z,887.10
2017-12-31T08:43:41.316Z,887.16
2017-12-31T08:44:41.298Z,887.17
2017-12-31T08:45:41.287Z,887.18
2017-12-31T08:46:41.266Z,887.24
2017-12-31T08:47:41.250Z,887.27
2017-12-31T08:48:41.235Z,887.33
2017-12-31T08:49:41.221Z,887.30
2017-12-31T08:50:41.207Z,887.29
2017-12-31T08:51:41.186Z,887.37
2017-12-31T08:52:41.181Z,887.37
2017-12-31T08:53:41.164Z,887.39
2017-12-31T08:54:41.147Z,887.36
2017-12-31T08:55:41.131Z,887.35
2017-12-31T08:56:41.116Z,887.35
2017-12-31T08:57:41.104Z,887.35
2017-12-31T08:58:41.092Z,887.34
2017-12-31T08:59:41.074Z,887.32
2017-12-31T09:00:41.063Z,887.34
2017-12-31T09:01:41.045Z,887.38
2017-12-31T09:02:41.030Z,887.37
2017-12-31T09:03:41.016Z,887.40
2017-12-31T09:04:41.001Z,887.36
2017-12-31T09:05:40.984Z,887.34
2017-12-31T09:06:40.974Z,887.37
2017-12-31T09:07:40.957Z,887.41
2017-12-31T09:08:40.945Z,887.44
2017-12-31T09:09:40.929Z,887.45
2017-12-31T09:10:40.911Z,887.50
2017-12-31T09:11:40.898Z,887.44
2017-12-31T09:12:40.889Z,887.48
2017-12-31T09:13:40.880Z,887.50
2017-12-31T09:14:40.860Z,887.51
2017-12-31T09:15:40.850Z,887.50
2017-12-31T09:16:40.836Z,887.55
2017-12-31T09:17:40.824Z,887.54
2017-12-31T09:18:40.815Z,887.49
2017-12-31T09:19:40.803Z,887.56
2017-12-31T09:20:40.785Z,887.50
2017-12-31T09:21:40.776Z,887.51
2017-12-31T09:22:40.769Z,887.52
2017-12-31T09:23:40.752Z,887.50
2017-12-31T09:24:40.747Z,887.47
2017-12-31T09:25:40.734Z,887.50
2017-12-31T09:26:40.716Z,887.53
2017-12-31T09:27:40.706Z,887.53
2017-12-31T09:28:40.700Z,887.56
2017-12-31T09:29:40.690Z,887.55
2017-12-31T09:30:40.681Z,887.49
2017-12-31T09:31:40.669Z,887.55
2017-12-31T09:32:40.661Z,887.42
2017-12-31T09:33:40.651Z,887.44
2017-12-31T09:34:40.639Z,887.47
2017-12-31T09:35:40.630Z,887.46
2017-12-31T09:36:40.621Z,887.43
2017-12-31T09:37:40.612Z,887.43
2017-12-31T09:38:40.605Z,887.43
2017-12-31T09:39:40.596Z,887.44
2017-12-31T09:40:40.588Z,887.49
2017-12-31T09:41:40.583Z,887.48
2017-12-31T09:42:40.575Z,887.50
2017-12-31T09:43:40.566Z,887.46
2017-12-31T09:44:40.560Z,887.50
2017-12-31T09:45:40.553Z,887.45
2017-12-31T09:46:40.543Z,887.39
2017-12-31T09:47:40.536Z,887.36
2017-12-31T09:48:40.530Z,887.37
2017-12-31T09:49:40.528Z,887.41
2017-12-31T09:50:40.520Z,887.35
2017-12-31T09:51:40.518Z,887.31
2017-12-31T09:52:40.509Z,887.30
2017-12-31T09:53:40.503Z,887.30
2017-12-31T09:54:40.499Z,887.29
2017-12-31T09:55:40.490Z,887.28
2017-12-31T09:56:40.495Z,887.24
2017-12-31T09:57:40.483Z,887.26
2017-12-31T09:58:40.478Z,887.23
2017-12-31T09:59:40.473Z,887.28
2017-12-31T10:00:40.494Z,887.32
2017-12-31T10:01:40.470Z,887.30
2017-12-31T10:02:40.464Z,887.26
2017-12-31T10:03:40.456Z,887.30
2017-12-31T10:04:40.450Z,887.30
2017-12-31T10:05:40.455Z,887.31
2017-12-31T10:06:40.446Z,887.31
2017-12-31T10:07:40.441Z,887.31
2017-12-31T10:08:40.437Z,887.33
2017-12-31T10:09:40.431Z,887.43
2017-12-31T10:10:40.430Z,887.48
2017-12-31T10:11:40.425Z,887.69
2017-12-31T10:12:40.423Z,887.84
2017-12-31T10:13:40.420Z,887.84
2017-12-31T10:14:40.416Z,887.66
2017-12-31T10:15:40.411Z,887.79
2017-12-31T10:16:40.409Z,887.75
2017-12-31T10:17:40.406Z,887.75
2017-12-31T10:18:40.403Z,887.87
2017-12-31T10:19:40.401Z,887.72
2017-12-31T10:20:40.398Z,887.69
2017-12-31T10:21:40.396Z,887.66
2017-12-31T10:22:40.394Z,887.60
2017-12-31T10:23:40.391Z,887.57
2017-12-31T10:24:40.396Z,887.51
2017-12-31T10:25:40.393Z,887.54
2017-12-31T10:26:40.386Z,887.55
2017-12-31T10:27:40.386Z,887.46
2017-12-31T10:28:40.383Z,887.45
2017-12-31T10:29:40.387Z,887.35
2017-12-31T10:30:40.388Z,887.22
2017-12-31T10:31:40.383Z,887.21
2017-12-31T10:32:40.388Z,887.13
2017-12-31T10:33:40.387Z,887.12
2017-12-31T10:34:40.386Z,887.13
2017-12-31T10:35:40.385Z,887.11
2017-12-31T10:36:40.386Z,887.10
2017-12-31T10:37:40.389Z,887.17
2017-12-31T10:38:40.383Z,887.16
2017-12-31T10:39:40.390Z,887.12
2017-12-31T10:40:40.386Z,887.14
2017-12-31T10:41:40.389Z,887.12
2017-12-31T10:42:40.387Z,887.16
2017-12-31T10:43:40.391Z,887.13
2017-12-31T10:44:40.390Z,887.14
2017-12-31T10:45:40.392Z,887.16
2017-12-31T10:46:40.396Z,887.14
2017-12-31T10:47:40.397Z,887.18
2017-12-31T10:48:40.395Z,887.10
2017-12-31T10:49:40.394Z,887.14
2017-12-31T10:50:40.406Z,887.12
2017-12-31T10:51:40.402Z,887.09
2017-12-31T10:52:40.404Z,887.09
2017-12-31T10:53:40.403Z,887.08
2017-12-31T10:54:40.404Z,887.08
2017-12-31T10:55:40.405Z,887.06
2017-12-31T10:56:40.405Z,887.01
2017-12-31T10:57:40.411Z,886.99
2017-12-31T10:58:40.408Z,887.00
2017-12-31T10:59:40.417Z,886.93
2017-12-31T11:00:40.414Z,886.93
2017-12-31T11:01:40.453Z,886.91
2017-12-31T11:02:40.417Z,886.89
2017-12-31T11:03:40.418Z,886.87
2017-12-31T11:04:40.417Z,886.89
2017-12-31T11:05:40.427Z,886.93
2017-12-31T11:06:40.420Z,886.88
2017-12-31T11:07:40.422Z,886.90
2017-12-31T11:08:40.426Z,886.88
2017-12-31T11:09:40.423Z,886.86
2017-12-31T11:10:40.432Z,886.82
2017-12-31T11:11:40.423Z,886.80
2017-12-31T11:12:40.427Z,886.82
2017-12-31T11:13:40.431Z,886.85
2017-12-31T11:14:40.427Z,886.85
2017-12-31T11:15:40.433Z,886.92
2017-12-31T11:16:40.432Z,886.95
2017-12-31T11:17:40.434Z,886.99
2017-12-31T11:18:40.438Z,887.00
2017-12-31T11:19:40.434Z,887.07
2017-12-31T11:20:40.438Z,887.24
2017-12-31T11:21:40.437Z,887.35
2017-12-31T11:22:40.440Z,887.25
2017-12-31T11:23:40.444Z,886.93
2017-12-31T11:24:40.445Z,886.91
2017-12-31T11:25:40.446Z,886.92
2017-12-31T11:26:40.448Z,886.84
2017-12-31T11:27:40.449Z,886.77
2017-12-31T11:28:40.451Z,886.70
2017-12-31T11:29:40.452Z,886.77
2017-12-31T11:30:40.452Z,886.81
2017-12-31T11:31:40.451Z,886.84
2017-12-31T11:32:40.452Z,886.85
2017-12-31T11:33:40.460Z,886.83
2017-12-31T11:34:40.458Z,886.81
2017-12-31T11:35:40.457Z,886.88
2017-12-31T11:36:40.460Z,887.05
2017-12-31T11:37:40.460Z,887.23
2017-12-31T11:38:40.458Z,887.36
2017-12-31T11:39:40.464Z,887.48
2017-12-31T11:40:40.466Z,887.47
2017-12-31T11:41:40.462Z,887.50
2017-12-31T11:42:40.464Z,887.42
2017-12-31T11:43:40.459Z,887.47
2017-12-31T11:44:40.462Z,887.39
2017-12-31T11:45:40.457Z,887.46
2017-12-31T11:46:40.463Z,887.33
2017-12-31T11:47:40.467Z,887.32
2017-12-31T11:48:40.464Z,887.34
2017-12-31T11:49:40.463Z,887.27
2017-12-31T11:50:40.470Z,887.22
2017-12-31T11:51:40.468Z,887.10
2017-12-31T11:52:40.472Z,887.09
2017-12-31T11:53:40.472Z,887.21
2017-12-31T11:54:40.474Z,887.32
2017-12-31T11:55:40.474Z,887.66
2017-12-31T11:56:40.477Z,887.80
2017-12-31T11:57:40.475Z,887.82
2017-12-31T11:58:40.472Z,887.85
2017-12-31T11:59:40.475Z,887.73
2017-12-31T12:00:40.475Z,887.67
2017-12-31T12:01:40.474Z,887.67
2017-12-31T12:02:40.474Z,887.87
2017-12-31T12:03:40.472Z,887.81
2017-12-31T12:04:40.479Z,887.70
2017-12-31T12:05:40.479Z,887.44
2017-12-31T12:06:40.478Z,887.10
2017-12-31T12:07:40.483Z,887.06
2017-12-31T12:08:40.484Z,887.09
2017-12-31T12:09:40.488Z,886.86
2017-12-31T12:10:40.486Z,886.80
2017-12-31T12:11:40.487Z,886.81
2017-12-31T12:12:40.488Z,886.94
2017-12-31T12:13:40.497Z,886.93
2017-12-31T12:14:40.489Z,886.76
2017-12-31T12:15:40.490Z,886.68
2017-12-31T12:16:40.494Z,886.73
2017-12-31T12:17:40.493Z,887.06
2017-12-31T12:18:40.491Z,887.24
2017-12-31T12:19:40.491Z,887.18
2017-12-31T12:20:40.496Z,886.95
2017-12-31T12:21:40.497Z,886.72
2017-12-31T12:22:40.499Z,886.56
2017-12-31T12:23:40.505Z,886.54
2017-12-31T12:24:40.499Z,886.59
2017-12-31T12:25:40.499Z,886.64
2017-12-31T12:26:40.500Z,886.88
2017-12-31T12:27:40.498Z,886.60
2017-12-31T12:28:40.496Z,886.25